createdAt,value
2022-10-18T00:00:04.899Z,12.55
2022-10-18T00:01:04.907Z,12.49
2022-10-18T00:02:04.961Z,12.46
2022-10-18T00:03:04.852Z,12.48
2022-10-18T00:04:04.844Z,12.43
2022-10-18T00:05:04.825Z,12.40
2022-10-18T00:06:04.817Z,12.44
2022-10-18T00:07:04.810Z,12.46
2022-10-18T00:08:04.794Z,12.48
2022-10-18T00:09:04.783Z,12.51
2022-10-18T00:10:04.762Z,12.43
2022-10-18T00:11:04.743Z,12.51
2022-10-18T00:12:04.826Z,12.38
2022-10-18T00:13:04.723Z,12.38
2022-10-18T00:14:04.706Z,12.48
2022-10-18T00:15:04.695Z,12.48
2022-10-18T00:16:04.682Z,12.46
2022-10-18T00:17:04.662Z,12.38
2022-10-18T00:18:04.652Z,12.38
2022-10-18T00:19:04.642Z,12.37
2022-10-18T00:20:04.629Z,12.44
2022-10-18T00:21:04.610Z,12.33
2022-10-18T00:22:04.600Z,12.37
2022-10-18T00:23:04.581Z,12.33
2022-10-18T00:24:04.569Z,12.41
2022-10-18T00:25:04.548Z,12.43
2022-10-18T00:26:04.540Z,12.38
2022-10-18T00:27:04.526Z,12.34
2022-10-18T00:28:04.541Z,12.26
2022-10-18T00:29:04.504Z,12.30
2022-10-18T00:30:04.493Z,12.31
2022-10-18T00:31:04.476Z,12.37
2022-10-18T00:32:04.464Z,12.31
2022-10-18T00:33:04.446Z,12.25
2022-10-18T00:34:04.436Z,12.34
2022-10-18T00:35:04.672Z,12.33
2022-10-18T00:36:04.403Z,12.26
2022-10-18T00:37:04.384Z,12.25
2022-10-18T00:38:04.376Z,12.25
2022-10-18T00:39:04.360Z,12.16
2022-10-18T00:40:04.356Z,12.34
2022-10-18T00:41:04.332Z,12.18
2022-10-18T00:42:04.322Z,12.23
2022-10-18T00:43:04.305Z,12.15
2022-10-18T00:44:04.319Z,12.11
2022-10-18T00:45:04.282Z,12.12
2022-10-18T00:46:04.272Z,12.08
2022-10-18T00:47:04.255Z,12.16
2022-10-18T00:48:04.344Z,12.08
2022-10-18T00:49:04.230Z,12.08
2022-10-18T00:50:04.215Z,12.16
2022-10-18T00:51:04.203Z,12.18
2022-10-18T00:52:04.186Z,12.15
2022-10-18T00:53:04.167Z,12.19
2022-10-18T00:54:04.158Z,12.22
2022-10-18T00:55:04.146Z,12.07
2022-10-18T00:56:04.137Z,12.29
2022-10-18T00:57:04.122Z,12.19
2022-10-18T00:58:04.116Z,12.13
2022-10-18T00:59:04.299Z,12.15
2022-10-18T01:00:04.619Z,12.15
2022-10-18T01:01:04.059Z,12.16
2022-10-18T01:02:04.112Z,12.21
2022-10-18T01:03:04.031Z,12.08
2022-10-18T01:04:04.018Z,12.05
2022-10-18T01:05:04.006Z,12.13
2022-10-18T01:06:03.994Z,12.22
2022-10-18T01:07:03.985Z,12.15
2022-10-18T01:08:03.975Z,12.11
2022-10-18T01:09:03.954Z,12.05
2022-10-18T01:10:03.943Z,12.15
2022-10-18T01:11:03.923Z,12.26
2022-10-18T01:12:03.916Z,12.22
2022-10-18T01:13:03.899Z,12.13
2022-10-18T01:14:03.889Z,12.29
2022-10-18T01:15:03.872Z,12.16
2022-10-18T01:16:03.880Z,12.22
2022-10-18T01:17:03.839Z,12.29
2022-10-18T01:18:03.835Z,12.29
2022-10-18T01:19:03.814Z,12.19
2022-10-18T01:20:03.802Z,12.30
2022-10-18T01:21:03.785Z,12.33
2022-10-18T01:22:03.778Z,12.21
2022-10-18T01:23:03.757Z,12.25
2022-10-18T01:24:03.755Z,12.19
2022-10-18T01:25:03.754Z,12.22
2022-10-18T01:26:03.723Z,12.25
2022-10-18T01:27:03.713Z,12.23
2022-10-18T01:28:03.690Z,12.23
2022-10-18T01:29:03.752Z,12.31
2022-10-18T01:30:03.666Z,12.33
2022-10-18T01:31:03.669Z,12.31
2022-10-18T01:32:03.663Z,12.29
2022-10-18T01:33:03.625Z,12.22
2022-10-18T01:34:03.618Z,12.19
2022-10-18T01:35:03.605Z,12.38
2022-10-18T01:36:03.591Z,12.33
2022-10-18T01:37:03.574Z,12.33
2022-10-18T01:38:03.560Z,12.34
2022-10-18T01:39:03.543Z,12.30
2022-10-18T01:40:03.730Z,12.37
2022-10-18T01:41:03.510Z,12.37
2022-10-18T01:42:03.501Z,12.41
2022-10-18T01:43:03.556Z,12.41
2022-10-18T01:44:03.480Z,12.46
2022-10-18T01:45:03.475Z,12.51
2022-10-18T01:46:03.446Z,12.30
2022-10-18T01:47:03.436Z,12.41
2022-10-18T01:48:03.445Z,12.43
2022-10-18T01:49:03.406Z,12.51
2022-10-18T01:50:03.397Z,12.46
2022-10-18T01:51:03.379Z,12.51
2022-10-18T01:52:03.514Z,12.56
2022-10-18T01:53:03.355Z,12.49
2022-10-18T01:54:03.343Z,12.51
2022-10-18T01:55:03.326Z,12.41
2022-10-18T01:56:03.309Z,12.48
2022-10-18T01:57:03.292Z,12.43
2022-10-18T01:58:03.283Z,12.46
2022-10-18T01:59:03.266Z,12.51
2022-10-18T02:00:03.268Z,12.46
2022-10-18T02:01:03.294Z,12.55
2022-10-18T02:02:03.230Z,12.43
2022-10-18T02:03:03.218Z,12.52
2022-10-18T02:04:03.224Z,12.54
2022-10-18T02:05:03.185Z,12.46
2022-10-18T02:06:03.175Z,12.52
2022-10-18T02:07:03.157Z,12.52
2022-10-18T02:08:12.512Z,12.48
2022-10-18T02:09:04.157Z,12.51
2022-10-18T02:10:03.182Z,12.52
2022-10-18T02:11:03.108Z,12.46
2022-10-18T02:12:03.101Z,12.46
2022-10-18T02:13:03.080Z,12.55
2022-10-18T02:14:03.068Z,12.46
2022-10-18T02:15:03.053Z,12.46
2022-10-18T02:16:03.044Z,12.46
2022-10-18T02:17:03.035Z,12.54
2022-10-18T02:18:03.019Z,12.49
2022-10-18T02:19:03.002Z,12.48
2022-10-18T02:20:03.009Z,12.58
2022-10-18T02:21:02.975Z,12.49
2022-10-18T02:22:02.958Z,12.52
2022-10-18T02:23:02.938Z,12.46
2022-10-18T02:24:02.929Z,12.46
2022-10-18T02:25:02.916Z,12.46
2022-10-18T02:26:02.904Z,12.52
2022-10-18T02:27:02.884Z,12.46
2022-10-18T02:28:02.880Z,12.58
2022-10-18T02:29:02.872Z,12.49
2022-10-18T02:30:02.859Z,12.49
2022-10-18T02:31:02.839Z,12.61
2022-10-18T02:32:02.827Z,12.41
2022-10-18T02:33:02.816Z,12.38
2022-10-18T02:34:02.805Z,12.43
2022-10-18T02:35:02.791Z,12.38
2022-10-18T02:36:02.786Z,12.48
2022-10-18T02:37:02.758Z,12.43
2022-10-18T02:38:02.740Z,12.44
2022-10-18T02:39:02.725Z,12.46
2022-10-18T02:40:02.710Z,12.54
2022-10-18T02:41:02.696Z,12.43
2022-10-18T02:42:02.687Z,12.46
2022-10-18T02:43:02.674Z,12.51
2022-10-18T02:44:02.666Z,12.40
2022-10-18T02:45:03.049Z,12.43
2022-10-18T02:46:02.638Z,12.43
2022-10-18T02:47:02.629Z,12.41
2022-10-18T02:48:02.607Z,12.43
2022-10-18T02:49:02.594Z,12.43
2022-10-18T02:50:02.577Z,12.52
2022-10-18T02:51:02.570Z,12.38
2022-10-18T02:52:02.572Z,12.44
2022-10-18T02:53:02.535Z,12.52
2022-10-18T02:54:02.525Z,12.52
2022-10-18T02:55:02.607Z,12.48
2022-10-18T02:56:02.495Z,12.49
2022-10-18T02:57:02.479Z,12.54
2022-10-18T02:58:02.472Z,12.62
2022-10-18T02:59:02.451Z,12.62
2022-10-18T03:00:02.451Z,12.67
2022-10-18T03:01:02.436Z,12.63
2022-10-18T03:02:02.418Z,12.74
2022-10-18T03:03:02.409Z,12.76
2022-10-18T03:04:02.393Z,12.70
2022-10-18T03:05:02.383Z,12.62
2022-10-18T03:06:02.360Z,12.63
2022-10-18T03:07:02.345Z,12.73
2022-10-18T03:08:02.362Z,12.73
2022-10-18T03:09:02.322Z,12.69
2022-10-18T03:10:02.311Z,12.67
2022-10-18T03:11:02.295Z,12.73
2022-10-18T03:12:02.285Z,12.79
2022-10-18T03:13:02.273Z,12.77
2022-10-18T03:14:02.260Z,12.84
2022-10-18T03:15:02.245Z,12.79
2022-10-18T03:16:02.230Z,12.92
2022-10-18T03:17:02.210Z,12.85
2022-10-18T03:18:02.203Z,12.74
2022-10-18T03:19:02.184Z,12.87
2022-10-18T03:20:02.179Z,12.81
2022-10-18T03:21:02.160Z,12.80
2022-10-18T03:22:02.154Z,12.77
2022-10-18T03:23:02.132Z,12.71
2022-10-18T03:24:02.146Z,12.77
2022-10-18T03:25:02.115Z,12.73
2022-10-18T03:26:02.096Z,12.84
2022-10-18T03:27:02.080Z,12.79
2022-10-18T03:28:02.076Z,12.92
2022-10-18T03:29:02.212Z,12.87
2022-10-18T03:30:02.045Z,12.87
2022-10-18T03:31:02.030Z,12.92
2022-10-18T03:32:02.013Z,12.88
2022-10-18T03:33:01.997Z,12.84
2022-10-18T03:34:01.991Z,12.88
2022-10-18T03:35:01.982Z,12.92
2022-10-18T03:36:01.964Z,12.84
2022-10-18T03:37:04.698Z,12.91
2022-10-18T03:38:01.964Z,13.09
2022-10-18T03:39:01.918Z,12.98
2022-10-18T03:40:01.928Z,12.99
2022-10-18T03:41:01.890Z,12.92
2022-10-18T03:42:01.893Z,13.03
2022-10-18T03:43:01.861Z,12.99
2022-10-18T03:44:01.851Z,12.98
2022-10-18T03:45:01.867Z,12.98
2022-10-18T03:46:01.826Z,13.03
2022-10-18T03:47:01.807Z,13.01
2022-10-18T03:48:01.800Z,12.98
2022-10-18T03:49:01.787Z,12.96
2022-10-18T03:50:01.776Z,12.96
2022-10-18T03:51:01.764Z,12.96
2022-10-18T03:52:01.749Z,12.98
2022-10-18T03:53:01.734Z,13.03
2022-10-18T03:54:01.727Z,12.94
2022-10-18T03:55:01.709Z,12.98
2022-10-18T03:56:01.713Z,12.98
2022-10-18T03:57:01.675Z,12.85
2022-10-18T03:58:01.667Z,12.87
2022-10-18T03:59:01.649Z,12.92
2022-10-18T04:00:01.640Z,12.89
2022-10-18T04:01:01.627Z,12.87
2022-10-18T04:02:01.674Z,12.79
2022-10-18T04:03:01.605Z,12.77
2022-10-18T04:04:01.592Z,12.81
2022-10-18T04:05:01.576Z,12.81
2022-10-18T04:06:01.563Z,12.84
2022-10-18T04:07:01.545Z,12.85
2022-10-18T04:08:01.528Z,12.88
2022-10-18T04:09:03.238Z,12.84
2022-10-18T04:10:01.514Z,12.79
2022-10-18T04:11:01.487Z,12.87
2022-10-18T04:12:01.504Z,12.80
2022-10-18T04:13:01.467Z,12.76
2022-10-18T04:14:01.465Z,12.73
2022-10-18T04:15:01.439Z,12.80
2022-10-18T04:16:01.431Z,12.69
2022-10-18T04:17:01.417Z,12.84
2022-10-18T04:18:01.404Z,12.87
2022-10-18T04:19:01.385Z,12.81
2022-10-18T04:20:01.376Z,12.71
2022-10-18T04:21:01.355Z,12.69
2022-10-18T04:22:01.350Z,12.56
2022-10-18T04:23:01.326Z,12.67
2022-10-18T04:24:01.316Z,12.59
2022-10-18T04:25:01.305Z,12.67
2022-10-18T04:26:01.293Z,12.59
2022-10-18T04:27:01.276Z,12.67
2022-10-18T04:28:06.479Z,12.63
2022-10-18T04:29:01.352Z,12.59
2022-10-18T04:30:01.240Z,12.52
2022-10-18T04:31:01.246Z,12.55
2022-10-18T04:32:01.213Z,12.51
2022-10-18T04:33:01.201Z,12.55
2022-10-18T04:34:01.186Z,12.48
2022-10-18T04:35:01.168Z,12.51
2022-10-18T04:36:01.157Z,12.43
2022-10-18T04:37:01.138Z,12.46
2022-10-18T04:38:01.129Z,12.44
2022-10-18T04:39:01.109Z,12.36
2022-10-18T04:40:01.104Z,12.38
2022-10-18T04:41:01.087Z,12.33
2022-10-18T04:42:01.078Z,12.25
2022-10-18T04:43:01.061Z,12.29
2022-10-18T04:44:01.052Z,12.19
2022-10-18T04:45:01.031Z,12.34
2022-10-18T04:46:01.020Z,12.31
2022-10-18T04:47:01.022Z,12.30
2022-10-18T04:48:00.995Z,12.22
2022-10-18T04:49:00.975Z,12.31
2022-10-18T04:50:00.966Z,12.31
2022-10-18T04:51:00.951Z,12.19
2022-10-18T04:52:00.946Z,12.23
2022-10-18T04:53:00.926Z,12.38
2022-10-18T04:54:00.919Z,12.36
2022-10-18T04:55:00.897Z,12.30
2022-10-18T04:56:00.887Z,12.33
2022-10-18T04:57:00.868Z,12.33
2022-10-18T04:58:00.860Z,12.44
2022-10-18T04:59:00.845Z,12.40
2022-10-18T05:00:00.845Z,12.40
2022-10-18T05:01:00.811Z,12.37
2022-10-18T05:02:00.893Z,12.51
2022-10-18T05:03:00.808Z,12.44
2022-10-18T05:04:00.774Z,12.44
2022-10-18T05:05:00.757Z,12.43
2022-10-18T05:06:02.555Z,12.43
2022-10-18T05:07:00.784Z,12.40
2022-10-18T05:08:00.723Z,12.51
2022-10-18T05:09:00.714Z,12.51
2022-10-18T05:10:00.696Z,12.46
2022-10-18T05:11:00.750Z,12.49
2022-10-18T05:12:00.690Z,12.49
2022-10-18T05:13:00.650Z,12.48
2022-10-18T05:14:00.635Z,12.43
2022-10-18T05:15:00.620Z,12.40
2022-10-18T05:16:00.612Z,12.37
2022-10-18T05:17:00.628Z,12.44
2022-10-18T05:18:00.588Z,12.41
2022-10-18T05:19:00.591Z,12.46
2022-10-18T05:20:00.643Z,12.49
2022-10-18T05:21:00.543Z,12.54
2022-10-18T05:22:00.532Z,12.56
2022-10-18T05:23:00.515Z,12.48
2022-10-18T05:24:00.507Z,12.55
2022-10-18T05:25:00.486Z,12.46
2022-10-18T05:26:00.476Z,12.51
2022-10-18T05:27:00.461Z,12.44
2022-10-18T05:28:06.259Z,12.51
2022-10-18T05:29:01.628Z,12.58
2022-10-18T05:30:04.560Z,12.46
2022-10-18T05:31:00.407Z,12.51
2022-10-18T05:32:00.448Z,12.41
2022-10-18T05:33:00.393Z,12.40
2022-10-18T05:34:00.364Z,12.38
2022-10-18T05:35:00.376Z,12.48
2022-10-18T05:36:00.354Z,12.40
2022-10-18T05:37:00.324Z,12.40
2022-10-18T05:38:00.312Z,12.41
2022-10-18T05:39:04.018Z,12.36
2022-10-18T05:40:00.289Z,12.37
2022-10-18T05:41:00.267Z,12.37
2022-10-18T05:42:00.255Z,12.31
2022-10-18T05:43:00.242Z,12.25
2022-10-18T05:44:00.234Z,12.34
2022-10-18T05:45:00.227Z,12.16
2022-10-18T05:46:00.205Z,12.23
2022-10-18T05:47:00.197Z,12.29
2022-10-18T05:48:00.176Z,12.25
2022-10-18T05:49:00.156Z,12.19
2022-10-18T05:50:00.154Z,12.19
2022-10-18T05:51:00.148Z,12.16
2022-10-18T05:52:00.122Z,12.12
2022-10-18T05:53:11.860Z,12.18
2022-10-18T05:54:01.118Z,12.08
2022-10-18T05:55:00.081Z,12.13
2022-10-18T05:56:00.072Z,12.15
2022-10-18T05:57:00.047Z,12.16
2022-10-18T05:58:00.044Z,12.22
2022-10-18T05:59:00.026Z,12.11
2022-10-18T06:00:00.014Z,12.05
2022-10-18T06:01:00.246Z,12.08
2022-10-18T06:01:59.981Z,12.18
2022-10-18T06:03:00.536Z,12.22
2022-10-18T06:03:59.957Z,12.19
2022-10-18T06:04:59.939Z,12.16
2022-10-18T06:05:59.931Z,12.12
2022-10-18T06:06:59.935Z,12.30
2022-10-18T06:07:59.901Z,12.25
2022-10-18T06:08:59.892Z,12.30
2022-10-18T06:09:59.880Z,12.33
2022-10-18T06:10:59.880Z,12.31
2022-10-18T06:11:59.846Z,12.40
2022-10-18T06:12:59.830Z,12.37
2022-10-18T06:13:59.816Z,12.40
2022-10-18T06:14:59.802Z,12.55
2022-10-18T06:15:59.795Z,12.63
2022-10-18T06:16:59.778Z,12.76
2022-10-18T06:17:59.769Z,12.98
2022-10-18T06:18:59.749Z,13.14
2022-10-18T06:19:59.736Z,13.35
2022-10-18T06:20:59.716Z,13.47
2022-10-18T06:21:59.711Z,13.38
2022-10-18T06:22:59.725Z,13.29
2022-10-18T06:23:59.690Z,13.38
2022-10-18T06:24:59.669Z,13.38
2022-10-18T06:25:59.659Z,13.41
2022-10-18T06:26:59.688Z,13.73
2022-10-18T06:27:59.634Z,13.93
2022-10-18T06:28:59.695Z,14.19
2022-10-18T06:29:59.600Z,14.53
2022-10-18T06:30:59.584Z,14.74
2022-10-18T06:31:59.577Z,14.95
2022-10-18T06:32:59.563Z,15.19
2022-10-18T06:33:59.551Z,15.52
2022-10-18T06:34:59.528Z,15.55
2022-10-18T06:35:59.520Z,15.84
2022-10-18T06:36:59.506Z,16.10
2022-10-18T06:37:59.496Z,16.25
2022-10-18T06:38:59.498Z,16.50
2022-10-18T06:39:59.463Z,16.65
2022-10-18T06:40:59.450Z,16.78
2022-10-18T06:41:59.440Z,16.81
2022-10-18T06:43:00.780Z,16.60
2022-10-18T06:44:00.438Z,16.45
2022-10-18T06:44:59.396Z,16.30
2022-10-18T06:45:59.385Z,16.13
2022-10-18T06:46:59.367Z,15.95
2022-10-18T06:47:59.353Z,15.76
2022-10-18T06:48:59.345Z,15.62
2022-10-18T06:49:59.324Z,15.51
2022-10-18T06:50:59.328Z,15.35
2022-10-18T06:51:59.304Z,15.30
2022-10-18T06:52:59.291Z,15.23
2022-10-18T06:54:13.284Z,15.27
2022-10-18T06:55:00.311Z,15.23
2022-10-18T06:55:59.252Z,15.09
2022-10-18T06:56:59.242Z,15.03
2022-10-18T06:57:59.221Z,15.03
2022-10-18T06:59:59.229Z,15.00
2022-10-18T07:00:59.177Z,15.04
2022-10-18T07:01:59.214Z,15.05
2022-10-18T07:02:59.152Z,15.00
2022-10-18T07:03:59.135Z,14.90
2022-10-18T07:04:59.126Z,14.95
2022-10-18T07:05:59.111Z,14.82
2022-10-18T07:06:59.100Z,14.83
2022-10-18T07:07:59.085Z,14.72
2022-10-18T07:08:59.076Z,14.79
2022-10-18T07:09:59.062Z,14.86
2022-10-18T07:10:59.082Z,14.83
2022-10-18T07:11:59.030Z,14.80
2022-10-18T07:13:13.554Z,14.80
2022-10-18T07:14:00.030Z,14.74
2022-10-18T07:14:58.994Z,14.61
2022-10-18T07:15:58.971Z,14.67
2022-10-18T07:16:58.959Z,14.64
2022-10-18T07:17:58.944Z,14.59
2022-10-18T07:18:58.934Z,14.57
2022-10-18T07:19:58.923Z,14.71
2022-10-18T07:20:58.912Z,14.67
2022-10-18T07:21:58.894Z,14.67
2022-10-18T07:22:58.883Z,14.67
2022-10-18T07:23:58.865Z,14.83
2022-10-18T07:24:58.850Z,14.83
2022-10-18T07:25:58.837Z,14.83
2022-10-18T07:26:58.845Z,14.75
2022-10-18T07:27:58.808Z,14.82
2022-10-18T07:28:59.005Z,14.72
2022-10-18T07:29:58.781Z,14.86
2022-10-18T07:31:02.446Z,14.78
2022-10-18T07:31:59.780Z,14.83
2022-10-18T07:32:58.750Z,14.79
2022-10-18T07:33:58.732Z,14.90
2022-10-18T07:34:58.769Z,14.79
2022-10-18T07:35:58.702Z,14.86
2022-10-18T07:36:58.695Z,14.95
2022-10-18T07:37:58.679Z,14.93
2022-10-18T07:38:58.673Z,15.05
2022-10-18T07:39:58.645Z,15.11
2022-10-18T07:40:58.633Z,15.16
2022-10-18T07:41:58.618Z,15.12
2022-10-18T07:43:01.627Z,15.23
2022-10-18T07:43:58.592Z,15.30
2022-10-18T07:44:58.579Z,15.25
2022-10-18T07:45:58.564Z,15.33
2022-10-18T07:46:58.554Z,15.35
2022-10-18T07:47:58.540Z,15.34
2022-10-18T07:48:58.528Z,15.27
2022-10-18T07:49:58.512Z,15.30
2022-10-18T07:50:58.502Z,15.28
2022-10-18T07:51:58.480Z,15.37
2022-10-18T07:52:58.473Z,15.40
2022-10-18T07:53:58.455Z,15.38
2022-10-18T07:54:58.452Z,15.43
2022-10-18T07:55:58.431Z,15.44
2022-10-18T07:56:58.421Z,15.43
2022-10-18T07:57:58.404Z,15.55
2022-10-18T07:58:58.414Z,15.62
2022-10-18T07:59:58.376Z,15.70
2022-10-18T08:00:58.566Z,15.78
2022-10-18T08:01:58.423Z,15.85
2022-10-18T08:02:58.344Z,15.84
2022-10-18T08:04:01.038Z,15.86
2022-10-18T08:04:58.308Z,15.95
2022-10-18T08:05:58.291Z,15.86
2022-10-18T08:06:58.284Z,15.96
2022-10-18T08:07:58.266Z,16.03
2022-10-18T08:08:58.259Z,16.11
2022-10-18T08:09:58.240Z,16.08
2022-10-18T08:10:58.235Z,16.25
2022-10-18T08:11:58.226Z,16.41
2022-10-18T08:12:58.220Z,16.60
2022-10-18T08:13:58.191Z,16.66
2022-10-18T08:14:58.200Z,16.88
2022-10-18T08:15:58.164Z,16.92
2022-10-18T08:16:58.152Z,16.92
2022-10-18T08:17:58.134Z,16.98
2022-10-18T08:18:58.129Z,16.91
2022-10-18T08:20:11.503Z,16.92
2022-10-18T08:20:59.320Z,16.91
2022-10-18T08:21:58.078Z,17.02
2022-10-18T08:23:00.448Z,17.02
2022-10-18T08:23:58.054Z,17.03
2022-10-18T08:24:58.044Z,17.09
2022-10-18T08:25:58.029Z,17.12
2022-10-18T08:26:58.015Z,17.10
2022-10-18T08:27:57.993Z,17.10
2022-10-18T08:29:17.705Z,17.10
2022-10-18T08:29:59.174Z,17.14
2022-10-18T08:30:57.979Z,17.20
2022-10-18T08:31:57.946Z,17.15
2022-10-18T08:32:57.937Z,17.24
2022-10-18T08:33:57.912Z,17.15
2022-10-18T08:34:57.904Z,17.18
2022-10-18T08:35:57.892Z,17.25
2022-10-18T08:36:57.882Z,17.21
2022-10-18T08:37:57.863Z,17.17
2022-10-18T08:38:57.891Z,17.35
2022-10-18T08:39:57.836Z,17.43
2022-10-18T08:40:57.823Z,17.51
2022-10-18T08:41:57.812Z,17.47
2022-10-18T08:42:57.804Z,17.54
2022-10-18T08:43:57.783Z,17.49
2022-10-18T08:44:57.769Z,17.68
2022-10-18T08:45:57.753Z,17.63
2022-10-18T08:46:57.777Z,17.65
2022-10-18T08:47:57.730Z,17.58
2022-10-18T08:48:57.730Z,17.51
2022-10-18T08:49:57.696Z,17.57
2022-10-18T08:50:57.693Z,17.49
2022-10-18T08:51:57.675Z,17.63
2022-10-18T08:52:57.673Z,17.68
2022-10-18T08:53:57.649Z,17.80
2022-10-18T08:54:57.639Z,18.01
2022-10-18T08:55:57.621Z,18.26
2022-10-18T08:56:57.611Z,18.60
2022-10-18T08:57:57.592Z,19.27
2022-10-18T08:58:57.585Z,19.58
2022-10-18T08:59:57.567Z,19.76
2022-10-18T09:00:57.557Z,19.80
2022-10-18T09:01:57.687Z,19.75
2022-10-18T09:02:57.580Z,20.05
2022-10-18T09:03:57.513Z,20.16
2022-10-18T09:04:57.505Z,19.87
2022-10-18T09:05:57.487Z,19.67
2022-10-18T09:06:57.476Z,19.53
2022-10-18T09:07:57.454Z,19.47
2022-10-18T09:08:57.453Z,19.40
2022-10-18T09:09:57.431Z,19.46
2022-10-18T09:12:01.023Z,19.49
2022-10-18T09:12:57.388Z,19.49
2022-10-18T09:13:57.370Z,19.53
2022-10-18T09:14:57.364Z,19.58
2022-10-18T09:15:57.352Z,19.39
2022-10-18T09:16:57.340Z,19.42
2022-10-18T09:17:57.322Z,19.34
2022-10-18T09:18:57.338Z,19.31
2022-10-18T09:19:57.377Z,19.31
2022-10-18T09:20:57.279Z,19.42
2022-10-18T09:21:57.271Z,19.43
2022-10-18T09:22:57.256Z,19.42
2022-10-18T09:23:57.239Z,19.52
2022-10-18T09:24:57.234Z,19.34
2022-10-18T09:25:57.217Z,19.46
2022-10-18T09:26:57.208Z,19.40
2022-10-18T09:27:57.183Z,19.43
2022-10-18T09:28:57.330Z,19.52
2022-10-18T09:29:57.156Z,19.53
2022-10-18T09:30:59.463Z,19.46
2022-10-18T09:31:57.136Z,19.45
2022-10-18T09:32:57.126Z,19.50
2022-10-18T09:33:57.105Z,19.49
2022-10-18T09:34:57.115Z,19.53
2022-10-18T09:35:57.078Z,19.65
2022-10-18T09:36:57.068Z,19.61
2022-10-18T09:37:57.048Z,19.64
2022-10-18T09:38:59.877Z,19.62
2022-10-18T09:39:57.018Z,19.71
2022-10-18T09:40:57.011Z,19.65
2022-10-18T09:41:56.991Z,19.65
2022-10-18T09:42:56.981Z,19.62
2022-10-18T09:43:56.968Z,19.58
2022-10-18T09:44:56.957Z,19.76
2022-10-18T09:45:56.935Z,19.62
2022-10-18T09:46:56.932Z,19.79
2022-10-18T09:47:56.919Z,19.78
2022-10-18T09:48:56.910Z,19.71
2022-10-18T09:49:56.885Z,19.79
2022-10-18T09:50:56.898Z,19.85
2022-10-18T09:51:56.859Z,19.89
2022-10-18T09:52:56.847Z,20.01
2022-10-18T09:53:56.830Z,19.95
2022-10-18T09:54:56.819Z,20.00
2022-10-18T09:55:56.800Z,20.15
2022-10-18T09:57:56.771Z,20.10
2022-10-18T09:58:56.766Z,20.15
2022-10-18T09:59:56.747Z,20.20
2022-10-18T10:00:56.740Z,20.31
2022-10-18T10:01:56.720Z,20.42
2022-10-18T10:02:56.714Z,20.38
2022-10-18T10:03:56.695Z,20.48
2022-10-18T10:04:56.693Z,20.56
2022-10-18T10:05:56.663Z,20.64
2022-10-18T10:06:57.026Z,20.79
2022-10-18T10:07:56.638Z,20.91
2022-10-18T10:08:56.631Z,20.98
2022-10-18T10:09:56.616Z,21.06
2022-10-18T10:10:56.603Z,21.08
2022-10-18T10:11:56.581Z,21.24
2022-10-18T10:12:56.576Z,21.26
2022-10-18T10:13:56.563Z,21.30
2022-10-18T10:14:56.543Z,21.46
2022-10-18T10:15:56.529Z,21.46
2022-10-18T10:16:56.517Z,21.59
2022-10-18T10:17:56.554Z,21.49
2022-10-18T10:18:56.495Z,21.55
2022-10-18T10:19:56.480Z,21.59
2022-10-18T10:20:56.521Z,21.64
2022-10-18T10:21:56.452Z,21.64
2022-10-18T10:22:56.474Z,21.61
2022-10-18T10:23:56.421Z,21.49
2022-10-18T10:24:56.414Z,21.40
2022-10-18T10:25:56.394Z,21.28
2022-10-18T10:26:56.384Z,21.37
2022-10-18T10:27:56.375Z,21.53
2022-10-18T10:28:56.488Z,21.46
2022-10-18T10:29:56.364Z,21.75
2022-10-18T10:30:56.339Z,21.94
2022-10-18T10:31:56.324Z,21.91
2022-10-18T10:32:56.313Z,22.05
2022-10-18T10:33:56.292Z,22.20
2022-10-18T10:34:56.281Z,22.27
2022-10-18T10:35:56.262Z,22.36
2022-10-18T10:36:56.250Z,22.42
2022-10-18T10:37:56.239Z,22.45
2022-10-18T10:38:56.263Z,22.49
2022-10-18T10:40:17.368Z,22.56
2022-10-18T10:40:57.219Z,22.67
2022-10-18T10:41:56.183Z,22.61
2022-10-18T10:43:04.309Z,22.75
2022-10-18T10:43:57.188Z,22.72
2022-10-18T10:44:56.152Z,22.63
2022-10-18T10:45:56.131Z,22.59
2022-10-18T10:46:56.121Z,22.76
2022-10-18T10:47:56.105Z,22.88
2022-10-18T10:49:15.450Z,22.86
2022-10-18T10:49:57.110Z,23.03
2022-10-18T10:50:56.076Z,23.00
2022-10-18T10:52:08.210Z,23.15
2022-10-18T10:52:57.059Z,23.21
2022-10-18T10:53:56.026Z,23.31
2022-10-18T10:55:05.920Z,23.25
2022-10-18T10:55:57.027Z,23.38
2022-10-18T10:56:55.983Z,23.12
2022-10-18T10:57:55.970Z,23.35
2022-10-18T10:58:55.991Z,23.63
2022-10-18T10:59:55.950Z,23.59
2022-10-18T11:00:55.937Z,23.59
2022-10-18T11:01:55.923Z,23.56
2022-10-18T11:03:05.987Z,23.79
2022-10-18T11:03:56.980Z,23.86
2022-10-18T11:04:55.885Z,23.81
2022-10-18T11:05:55.876Z,23.75
2022-10-18T11:06:55.857Z,23.64
2022-10-18T11:07:55.849Z,23.68
2022-10-18T11:08:55.831Z,23.59
2022-10-18T11:09:55.817Z,23.62
2022-10-18T11:10:55.820Z,23.56
2022-10-18T11:11:55.792Z,23.84
2022-10-18T11:12:55.770Z,24.11
2022-10-18T11:14:07.224Z,24.19
2022-10-18T11:14:56.771Z,24.68
2022-10-18T11:15:55.741Z,25.42
2022-10-18T11:16:55.869Z,26.60
2022-10-18T11:17:55.736Z,27.46
2022-10-18T11:18:55.942Z,27.99
2022-10-18T11:19:55.686Z,28.57
2022-10-18T11:20:55.670Z,29.37
2022-10-18T11:21:55.659Z,29.95
2022-10-18T11:22:55.643Z,30.10
2022-10-18T11:23:55.633Z,30.29
2022-10-18T11:24:55.614Z,30.51
2022-10-18T11:25:55.606Z,29.92
2022-10-18T11:26:55.706Z,28.11
2022-10-18T11:27:55.597Z,27.39
2022-10-18T11:28:55.636Z,28.27
2022-10-18T11:29:55.549Z,28.65
2022-10-18T11:30:55.543Z,28.05
2022-10-18T11:31:55.533Z,26.91
2022-10-18T11:32:55.518Z,26.39
2022-10-18T11:34:10.963Z,26.79
2022-10-18T11:34:56.513Z,26.54
2022-10-18T11:35:58.160Z,25.94
2022-10-18T11:37:09.659Z,25.35
2022-10-18T11:37:56.468Z,25.42
2022-10-18T11:38:55.459Z,24.89
2022-10-18T11:39:55.429Z,24.45
2022-10-18T11:40:55.415Z,24.16
2022-10-18T11:41:55.407Z,25.22
2022-10-18T11:42:55.407Z,26.36
2022-10-18T11:44:02.667Z,27.38
2022-10-18T11:44:56.387Z,28.24
2022-10-18T11:45:55.352Z,28.14
2022-10-18T11:46:55.386Z,28.65
2022-10-18T11:47:55.985Z,29.58
2022-10-18T11:48:55.311Z,30.44
2022-10-18T11:49:55.297Z,29.89
2022-10-18T11:50:55.284Z,29.23
2022-10-18T11:52:07.826Z,28.45
2022-10-18T11:52:56.285Z,27.98
2022-10-18T11:53:55.249Z,27.40
2022-10-18T11:54:55.237Z,26.94
2022-10-18T11:55:55.220Z,26.60
2022-10-18T11:56:55.203Z,26.17
2022-10-18T11:57:55.196Z,25.96
2022-10-18T11:58:55.300Z,25.81
2022-10-18T11:59:55.173Z,25.64
2022-10-18T12:00:55.205Z,25.57
2022-10-18T12:01:55.145Z,25.78
2022-10-18T12:02:55.223Z,25.61
2022-10-18T12:03:55.114Z,25.79
2022-10-18T12:05:22.165Z,25.96
2022-10-18T12:05:56.122Z,26.29
2022-10-18T12:06:55.070Z,26.96
2022-10-18T12:07:55.065Z,27.48
2022-10-18T12:08:55.061Z,28.58
2022-10-18T12:09:55.126Z,29.37
2022-10-18T12:11:06.605Z,29.85
2022-10-18T12:11:56.114Z,30.00
2022-10-18T12:12:54.990Z,29.82
2022-10-18T12:13:54.984Z,29.07
2022-10-18T12:14:54.987Z,28.74
2022-10-18T12:15:54.962Z,28.91
2022-10-18T12:17:13.527Z,29.12
2022-10-18T12:17:56.392Z,29.66
2022-10-18T12:18:55.211Z,28.85
2022-10-18T12:19:54.908Z,28.94
2022-10-18T12:20:54.895Z,29.70
2022-10-18T12:21:54.883Z,30.32
2022-10-18T12:22:54.865Z,30.93
2022-10-18T12:23:54.992Z,30.70
2022-10-18T12:24:54.838Z,29.89
2022-10-18T12:25:54.834Z,29.20
2022-10-18T12:26:54.811Z,29.30
2022-10-18T12:27:54.855Z,29.11
2022-10-18T12:28:54.857Z,29.08
2022-10-18T12:29:54.792Z,28.42
2022-10-18T12:30:54.794Z,28.03
2022-10-18T12:31:54.761Z,27.68
2022-10-18T12:33:03.406Z,27.93
2022-10-18T12:33:55.753Z,28.85
2022-10-18T12:34:54.719Z,29.49
2022-10-18T12:35:54.702Z,30.29
2022-10-18T12:36:54.756Z,31.05
2022-10-18T12:37:54.678Z,31.34
2022-10-18T12:38:54.666Z,31.71
2022-10-18T12:40:09.856Z,32.21
2022-10-18T12:40:55.663Z,32.84
2022-10-18T12:41:54.627Z,32.61
2022-10-18T12:42:54.620Z,32.44
2022-10-18T12:43:54.611Z,32.44
2022-10-18T12:44:54.588Z,32.59
2022-10-18T12:45:54.579Z,32.80
2022-10-18T12:46:54.592Z,32.73
2022-10-18T12:47:54.549Z,32.96
2022-10-18T12:48:54.538Z,33.06
2022-10-18T12:49:54.527Z,33.28
2022-10-18T12:50:54.510Z,33.63
2022-10-18T12:51:54.510Z,33.52
2022-10-18T12:52:54.497Z,32.81
2022-10-18T12:53:54.482Z,32.06
2022-10-18T12:54:54.467Z,32.19